sensor_id;sensor_type;location;lat;lon;timestamp;temperature;humidity
5344;DHT22;2694;48.954;8.928;2023-05-28T00:01:33;12.40;99.90
5344;DHT22;2694;48.954;8.928;2023-05-28T00:04:00;12.40;99.90
5344;DHT22;2694;48.954;8.928;2023-05-28T00:06:28;12.40;99.90
5344;DHT22;2694;48.954;8.928;2023-05-28T00:08:55;12.40;99.90
5344;DHT22;2694;48.954;8.928;2023-05-28T00:11:22;12.40;99.90
5344;DHT22;2694;48.954;8.928;2023-05-28T00:13:49;12.40;99.90
5344;DHT22;2694;48.954;8.928;2023-05-28T00:16:16;12.30;99.90
5344;DHT22;2694;48.954;8.928;2023-05-28T00:18:43;12.20;99.90
5344;DHT22;2694;48.954;8.928;2023-05-28T00:21:09;12.10;99.90
5344;DHT22;2694;48.954;8.928;2023-05-28T00:23:38;12.00;99.90
5344;DHT22;2694;48.954;8.928;2023-05-28T00:26:06;11.90;99.90
5344;DHT22;2694;48.954;8.928;2023-05-28T00:28:33;11.80;99.90
5344;DHT22;2694;48.954;8.928;2023-05-28T00:31:00;11.70;99.90
5344;DHT22;2694;48.954;8.928;2023-05-28T00:33:28;11.70;99.90
5344;DHT22;2694;48.954;8.928;2023-05-28T00:35:54;11.60;99.90
5344;DHT22;2694;48.954;8.928;2023-05-28T00:38:21;11.60;99.90
5344;DHT22;2694;48.954;8.928;2023-05-28T00:40:50;11.60;99.90
5344;DHT22;2694;48.954;8.928;2023-05-28T00:43:16;11.70;99.90
5344;DHT22;2694;48.954;8.928;2023-05-28T00:45:45;11.60;99.90
5344;DHT22;2694;48.954;8.928;2023-05-28T00:48:13;11.50;99.90
5344;DHT22;2694;48.954;8.928;2023-05-28T00:50:42;11.50;99.90
5344;DHT22;2694;48.954;8.928;2023-05-28T00:53:10;11.40;99.90
5344;DHT22;2694;48.954;8.928;2023-05-28T00:55:38;11.30;99.90
5344;DHT22;2694;48.954;8.928;2023-05-28T00:58:06;11.20;99.90
5344;DHT22;2694;48.954;8.928;2023-05-28T01:00:33;11.30;99.90
5344;DHT22;2694;48.954;8.928;2023-05-28T01:03:01;11.30;99.90
5344;DHT22;2694;48.954;8.928;2023-05-28T01:05:28;11.30;99.90
5344;DHT22;2694;48.954;8.928;2023-05-28T01:07:58;11.30;99.90
5344;DHT22;2694;48.954;8.928;2023-05-28T01:10:26;11.20;99.90
5344;DHT22;2694;48.954;8.928;2023-05-28T01:12:54;11.20;99.90
5344;DHT22;2694;48.954;8.928;2023-05-28T01:15:23;11.20;99.90
5344;DHT22;2694;48.954;8.928;2023-05-28T01:17:52;11.10;99.90
5344;DHT22;2694;48.954;8.928;2023-05-28T01:20:23;11.10;99.90
5344;DHT22;2694;48.954;8.928;2023-05-28T01:22:54;11.10;99.90
5344;DHT22;2694;48.954;8.928;2023-05-28T01:25:23;11.00;99.90
5344;DHT22;2694;48.954;8.928;2023-05-28T01:27:50;11.00;99.90
5344;DHT22;2694;48.954;8.928;2023-05-28T01:30:17;11.00;99.90
5344;DHT22;2694;48.954;8.928;2023-05-28T01:32:44;11.00;99.90
5344;DHT22;2694;48.954;8.928;2023-05-28T01:35:12;11.00;99.90
5344;DHT22;2694;48.954;8.928;2023-05-28T01:37:42;11.00;99.90
5344;DHT22;2694;48.954;8.928;2023-05-28T01:40:11;11.00;99.90
5344;DHT22;2694;48.954;8.928;2023-05-28T01:42:41;10.90;99.90
5344;DHT22;2694;48.954;8.928;2023-05-28T01:45:10;10.80;99.90
5344;DHT22;2694;48.954;8.928;2023-05-28T01:47:39;10.90;99.90
5344;DHT22;2694;48.954;8.928;2023-05-28T01:50:07;10.80;99.90
5344;DHT22;2694;48.954;8.928;2023-05-28T01:52:34;10.80;99.90
5344;DHT22;2694;48.954;8.928;2023-05-28T01:55:01;10.70;99.90
5344;DHT22;2694;48.954;8.928;2023-05-28T01:57:27;10.80;99.90
5344;DHT22;2694;48.954;8.928;2023-05-28T01:59:58;10.70;99.90
5344;DHT22;2694;48.954;8.928;2023-05-28T02:02:25;10.60;99.90
5344;DHT22;2694;48.954;8.928;2023-05-28T02:04:52;10.50;99.90
5344;DHT22;2694;48.954;8.928;2023-05-28T02:07:19;10.40;99.90
5344;DHT22;2694;48.954;8.928;2023-05-28T02:09:46;10.50;99.90
5344;DHT22;2694;48.954;8.928;2023-05-28T02:12:13;10.40;99.90
5344;DHT22;2694;48.954;8.928;2023-05-28T02:14:41;10.30;99.90
5344;DHT22;2694;48.954;8.928;2023-05-28T02:17:09;10.30;99.90
5344;DHT22;2694;48.954;8.928;2023-05-28T02:19:36;10.10;99.90
5344;DHT22;2694;48.954;8.928;2023-05-28T02:22:03;10.10;99.90
5344;DHT22;2694;48.954;8.928;2023-05-28T02:24:35;10.00;99.90
5344;DHT22;2694;48.954;8.928;2023-05-28T02:27:03;9.90;99.90
5344;DHT22;2694;48.954;8.928;2023-05-28T02:29:30;10.00;99.90
5344;DHT22;2694;48.954;8.928;2023-05-28T02:31:58;9.90;99.90
5344;DHT22;2694;48.954;8.928;2023-05-28T02:34:26;9.90;99.90
5344;DHT22;2694;48.954;8.928;2023-05-28T02:36:54;9.90;99.90
5344;DHT22;2694;48.954;8.928;2023-05-28T02:39:21;9.80;99.90
5344;DHT22;2694;48.954;8.928;2023-05-28T02:41:48;9.80;99.90
5344;DHT22;2694;48.954;8.928;2023-05-28T02:44:15;9.90;99.90
5344;DHT22;2694;48.954;8.928;2023-05-28T02:46:42;9.90;99.90
5344;DHT22;2694;48.954;8.928;2023-05-28T02:49:09;9.80;99.90
5344;DHT22;2694;48.954;8.928;2023-05-28T02:51:37;9.80;99.90
5344;DHT22;2694;48.954;8.928;2023-05-28T02:54:04;9.80;99.90
5344;DHT22;2694;48.954;8.928;2023-05-28T02:56:31;9.70;99.90
5344;DHT22;2694;48.954;8.928;2023-05-28T02:58:58;9.70;99.90
5344;DHT22;2694;48.954;8.928;2023-05-28T03:01:25;9.70;99.90
5344;DHT22;2694;48.954;8.928;2023-05-28T03:03:52;9.70;99.90
5344;DHT22;2694;48.954;8.928;2023-05-28T03:06:19;9.60;99.90
5344;DHT22;2694;48.954;8.928;2023-05-28T03:08:48;9.60;99.90
5344;DHT22;2694;48.954;8.928;2023-05-28T03:11:15;9.50;99.90
5344;DHT22;2694;48.954;8.928;2023-05-28T03:13:41;9.40;99.90
5344;DHT22;2694;48.954;8.928;2023-05-28T03:16:08;9.30;99.90
5344;DHT22;2694;48.954;8.928;2023-05-28T03:18:35;9.40;99.90
5344;DHT22;2694;48.954;8.928;2023-05-28T03:21:02;9.40;99.90
5344;DHT22;2694;48.954;8.928;2023-05-28T03:23:29;9.40;99.90
5344;DHT22;2694;48.954;8.928;2023-05-28T03:25:58;9.40;99.90
5344;DHT22;2694;48.954;8.928;2023-05-28T03:28:25;9.40;99.90
5344;DHT22;2694;48.954;8.928;2023-05-28T03:30:55;9.30;99.90
5344;DHT22;2694;48.954;8.928;2023-05-28T03:33:22;9.30;99.90
5344;DHT22;2694;48.954;8.928;2023-05-28T03:35:49;9.30;99.90
5344;DHT22;2694;48.954;8.928;2023-05-28T03:38:16;9.20;99.90
5344;DHT22;2694;48.954;8.928;2023-05-28T03:40:43;9.30;99.90
5344;DHT22;2694;48.954;8.928;2023-05-28T03:43:11;9.30;99.90
5344;DHT22;2694;48.954;8.928;2023-05-28T03:45:38;9.40;99.90
5344;DHT22;2694;48.954;8.928;2023-05-28T03:48:06;9.30;99.90
5344;DHT22;2694;48.954;8.928;2023-05-28T03:50:33;9.30;99.90
5344;DHT22;2694;48.954;8.928;2023-05-28T03:53:00;9.30;99.90
5344;DHT22;2694;48.954;8.928;2023-05-28T03:55:27;9.40;99.90
5344;DHT22;2694;48.954;8.928;2023-05-28T03:57:54;9.40;99.90
5344;DHT22;2694;48.954;8.928;2023-05-28T04:00:22;9.40;99.90
5344;DHT22;2694;48.954;8.928;2023-05-28T04:02:49;9.40;99.90
5344;DHT22;2694;48.954;8.928;2023-05-28T04:05:16;9.40;99.90
5344;DHT22;2694;48.954;8.928;2023-05-28T04:07:43;9.40;99.90
5344;DHT22;2694;48.954;8.928;2023-05-28T04:10:10;9.50;99.90
5344;DHT22;2694;48.954;8.928;2023-05-28T04:12:37;9.60;99.90
5344;DHT22;2694;48.954;8.928;2023-05-28T04:15:05;9.70;99.90
5344;DHT22;2694;48.954;8.928;2023-05-28T04:17:34;9.90;99.90
5344;DHT22;2694;48.954;8.928;2023-05-28T04:20:01;10.00;99.90
5344;DHT22;2694;48.954;8.928;2023-05-28T04:22:29;10.10;99.90
5344;DHT22;2694;48.954;8.928;2023-05-28T04:24:56;10.20;99.90
5344;DHT22;2694;48.954;8.928;2023-05-28T04:27:23;10.30;99.90
5344;DHT22;2694;48.954;8.928;2023-05-28T04:29:50;10.40;99.90
5344;DHT22;2694;48.954;8.928;2023-05-28T04:32:20;10.50;99.90
5344;DHT22;2694;48.954;8.928;2023-05-28T04:34:49;10.70;99.90
5344;DHT22;2694;48.954;8.928;2023-05-28T04:37:17;10.80;99.90
5344;DHT22;2694;48.954;8.928;2023-05-28T04:39:43;10.90;99.90
5344;DHT22;2694;48.954;8.928;2023-05-28T04:42:10;11.00;99.90
5344;DHT22;2694;48.954;8.928;2023-05-28T04:44:42;11.10;99.90
5344;DHT22;2694;48.954;8.928;2023-05-28T04:47:10;11.20;99.90
5344;DHT22;2694;48.954;8.928;2023-05-28T04:49:38;11.40;99.90
5344;DHT22;2694;48.954;8.928;2023-05-28T04:52:07;11.60;99.90
5344;DHT22;2694;48.954;8.928;2023-05-28T04:54:35;11.60;99.90
5344;DHT22;2694;48.954;8.928;2023-05-28T04:57:01;11.60;99.90
5344;DHT22;2694;48.954;8.928;2023-05-28T04:59:30;11.70;99.90
5344;DHT22;2694;48.954;8.928;2023-05-28T05:01:57;11.70;99.90
5344;DHT22;2694;48.954;8.928;2023-05-28T05:04:24;11.80;99.90
5344;DHT22;2694;48.954;8.928;2023-05-28T05:06:51;12.00;99.90
5344;DHT22;2694;48.954;8.928;2023-05-28T05:09:19;12.10;99.90
5344;DHT22;2694;48.954;8.928;2023-05-28T05:11:46;12.30;99.90
5344;DHT22;2694;48.954;8.928;2023-05-28T05:14:13;12.40;99.90
5344;DHT22;2694;48.954;8.928;2023-05-28T05:16:40;12.70;99.90
5344;DHT22;2694;48.954;8.928;2023-05-28T05:19:07;12.80;99.90
5344;DHT22;2694;48.954;8.928;2023-05-28T05:21:34;13.00;99.90
5344;DHT22;2694;48.954;8.928;2023-05-28T05:24:01;13.20;99.90
5344;DHT22;2694;48.954;8.928;2023-05-28T05:26:29;13.40;99.90
5344;DHT22;2694;48.954;8.928;2023-05-28T05:28:56;13.50;99.90
5344;DHT22;2694;48.954;8.928;2023-05-28T05:31:23;13.70;99.90
5344;DHT22;2694;48.954;8.928;2023-05-28T05:33:51;13.90;99.90
5344;DHT22;2694;48.954;8.928;2023-05-28T05:36:18;14.10;99.90
5344;DHT22;2694;48.954;8.928;2023-05-28T05:38:45;14.30;99.90
5344;DHT22;2694;48.954;8.928;2023-05-28T05:41:12;14.40;99.90
5344;DHT22;2694;48.954;8.928;2023-05-28T05:43:41;14.50;99.90
5344;DHT22;2694;48.954;8.928;2023-05-28T05:46:09;14.60;99.90
5344;DHT22;2694;48.954;8.928;2023-05-28T05:48:39;14.60;99.90
5344;DHT22;2694;48.954;8.928;2023-05-28T05:51:06;14.70;99.90
5344;DHT22;2694;48.954;8.928;2023-05-28T05:53:39;14.70;99.90
5344;DHT22;2694;48.954;8.928;2023-05-28T05:56:07;14.80;99.90
5344;DHT22;2694;48.954;8.928;2023-05-28T05:58:34;14.90;99.90
5344;DHT22;2694;48.954;8.928;2023-05-28T06:01:02;15.10;99.90
5344;DHT22;2694;48.954;8.928;2023-05-28T06:03:29;15.20;99.90
5344;DHT22;2694;48.954;8.928;2023-05-28T06:05:56;15.20;99.90
5344;DHT22;2694;48.954;8.928;2023-05-28T06:08:23;15.00;99.90
5344;DHT22;2694;48.954;8.928;2023-05-28T06:10:50;15.20;99.90
5344;DHT22;2694;48.954;8.928;2023-05-28T06:13:17;15.40;99.90
5344;DHT22;2694;48.954;8.928;2023-05-28T06:15:44;15.60;99.90
5344;DHT22;2694;48.954;8.928;2023-05-28T06:18:12;15.70;99.90
5344;DHT22;2694;48.954;8.928;2023-05-28T06:20:39;15.70;99.90
5344;DHT22;2694;48.954;8.928;2023-05-28T06:23:07;15.60;99.90
5344;DHT22;2694;48.954;8.928;2023-05-28T06:25:34;15.70;99.90
5344;DHT22;2694;48.954;8.928;2023-05-28T06:28:01;15.90;99.90
5344;DHT22;2694;48.954;8.928;2023-05-28T06:30:27;16.00;99.90
5344;DHT22;2694;48.954;8.928;2023-05-28T06:32:55;15.90;99.90
5344;DHT22;2694;48.954;8.928;2023-05-28T06:35:23;15.90;99.90
5344;DHT22;2694;48.954;8.928;2023-05-28T06:37:50;16.00;99.90
5344;DHT22;2694;48.954;8.928;2023-05-28T06:40:17;16.10;99.90
5344;DHT22;2694;48.954;8.928;2023-05-28T06:42:44;16.20;99.90
5344;DHT22;2694;48.954;8.928;2023-05-28T06:45:11;16.30;99.90
5344;DHT22;2694;48.954;8.928;2023-05-28T06:47:39;16.50;99.90
5344;DHT22;2694;48.954;8.928;2023-05-28T06:50:07;16.70;99.90
5344;DHT22;2694;48.954;8.928;2023-05-28T06:52:35;16.90;99.90
5344;DHT22;2694;48.954;8.928;2023-05-28T06:55:02;17.00;99.90
5344;DHT22;2694;48.954;8.928;2023-05-28T06:57:31;17.30;99.90
5344;DHT22;2694;48.954;8.928;2023-05-28T06:59:58;17.20;99.40
5344;DHT22;2694;48.954;8.928;2023-05-28T07:02:26;17.10;99.90
5344;DHT22;2694;48.954;8.928;2023-05-28T07:04:53;17.30;99.00
5344;DHT22;2694;48.954;8.928;2023-05-28T07:07:20;17.30;98.70
5344;DHT22;2694;48.954;8.928;2023-05-28T07:09:48;17.20;99.00
5344;DHT22;2694;48.954;8.928;2023-05-28T07:12:15;17.30;99.40
5344;DHT22;2694;48.954;8.928;2023-05-28T07:14:42;17.60;99.00
5344;DHT22;2694;48.954;8.928;2023-05-28T07:17:10;17.80;98.90
5344;DHT22;2694;48.954;8.928;2023-05-28T07:19:37;18.10;98.20
5344;DHT22;2694;48.954;8.928;2023-05-28T07:22:05;18.30;98.30
5344;DHT22;2694;48.954;8.928;2023-05-28T07:24:34;18.40;98.20
5344;DHT22;2694;48.954;8.928;2023-05-28T07:27:02;18.60;97.90
5344;DHT22;2694;48.954;8.928;2023-05-28T07:29:30;18.60;97.60
5344;DHT22;2694;48.954;8.928;2023-05-28T07:31:57;18.70;97.40
5344;DHT22;2694;48.954;8.928;2023-05-28T07:34:24;18.80;97.60
5344;DHT22;2694;48.954;8.928;2023-05-28T07:36:51;18.80;97.50
5344;DHT22;2694;48.954;8.928;2023-05-28T07:39:17;19.20;97.30
5344;DHT22;2694;48.954;8.928;2023-05-28T07:41:44;19.30;97.20
5344;DHT22;2694;48.954;8.928;2023-05-28T07:44:13;19.20;96.80
5344;DHT22;2694;48.954;8.928;2023-05-28T07:46:40;19.20;97.20
5344;DHT22;2694;48.954;8.928;2023-05-28T07:49:07;19.40;97.40
5344;DHT22;2694;48.954;8.928;2023-05-28T07:51:40;19.50;95.80
5344;DHT22;2694;48.954;8.928;2023-05-28T07:54:07;19.40;96.00
5344;DHT22;2694;48.954;8.928;2023-05-28T07:56:34;19.30;96.90
5344;DHT22;2694;48.954;8.928;2023-05-28T07:59:01;19.60;98.00
5344;DHT22;2694;48.954;8.928;2023-05-28T08:01:31;20.00;96.60
5344;DHT22;2694;48.954;8.928;2023-05-28T08:03:59;20.20;96.90
5344;DHT22;2694;48.954;8.928;2023-05-28T08:06:26;20.40;95.90
5344;DHT22;2694;48.954;8.928;2023-05-28T08:08:53;20.20;95.30
5344;DHT22;2694;48.954;8.928;2023-05-28T08:11:20;19.90;95.40
5344;DHT22;2694;48.954;8.928;2023-05-28T08:13:47;20.00;96.50
5344;DHT22;2694;48.954;8.928;2023-05-28T08:16:15;20.20;96.50
5344;DHT22;2694;48.954;8.928;2023-05-28T08:18:43;20.40;96.20
5344;DHT22;2694;48.954;8.928;2023-05-28T08:21:10;20.50;96.20
5344;DHT22;2694;48.954;8.928;2023-05-28T08:23:37;20.80;95.80
5344;DHT22;2694;48.954;8.928;2023-05-28T08:26:04;20.90;96.70
5344;DHT22;2694;48.954;8.928;2023-05-28T08:28:31;21.00;95.80
5344;DHT22;2694;48.954;8.928;2023-05-28T08:30:58;21.30;96.60
5344;DHT22;2694;48.954;8.928;2023-05-28T08:33:25;21.40;94.60
5344;DHT22;2694;48.954;8.928;2023-05-28T08:35:53;21.70;94.80
5344;DHT22;2694;48.954;8.928;2023-05-28T08:38:20;21.60;93.90
5344;DHT22;2694;48.954;8.928;2023-05-28T08:40:51;21.30;94.10
5344;DHT22;2694;48.954;8.928;2023-05-28T08:43:20;21.10;94.40
5344;DHT22;2694;48.954;8.928;2023-05-28T08:45:47;21.10;95.00
5344;DHT22;2694;48.954;8.928;2023-05-28T08:48:14;21.20;94.90
5344;DHT22;2694;48.954;8.928;2023-05-28T08:50:45;21.20;94.90
5344;DHT22;2694;48.954;8.928;2023-05-28T08:53:16;21.20;95.40
5344;DHT22;2694;48.954;8.928;2023-05-28T08:55:46;21.70;94.90
5344;DHT22;2694;48.954;8.928;2023-05-28T08:58:13;21.80;94.10
5344;DHT22;2694;48.954;8.928;2023-05-28T09:00:41;21.60;94.70
5344;DHT22;2694;48.954;8.928;2023-05-28T09:03:08;21.80;95.40
5344;DHT22;2694;48.954;8.928;2023-05-28T09:05:35;22.10;93.20
5344;DHT22;2694;48.954;8.928;2023-05-28T09:08:05;22.10;93.30
5344;DHT22;2694;48.954;8.928;2023-05-28T09:10:34;22.40;94.30
5344;DHT22;2694;48.954;8.928;2023-05-28T09:13:02;22.70;92.70
5344;DHT22;2694;48.954;8.928;2023-05-28T09:15:30;22.90;92.70
5344;DHT22;2694;48.954;8.928;2023-05-28T09:17:59;22.90;91.70
5344;DHT22;2694;48.954;8.928;2023-05-28T09:20:29;22.90;92.50
5344;DHT22;2694;48.954;8.928;2023-05-28T09:23:01;22.90;91.60
5344;DHT22;2694;48.954;8.928;2023-05-28T09:25:29;22.90;91.70
5344;DHT22;2694;48.954;8.928;2023-05-28T09:27:59;22.60;91.50
5344;DHT22;2694;48.954;8.928;2023-05-28T09:30:27;22.60;92.80
5344;DHT22;2694;48.954;8.928;2023-05-28T09:33:01;22.80;92.30
5344;DHT22;2694;48.954;8.928;2023-05-28T09:35:29;23.10;91.70
5344;DHT22;2694;48.954;8.928;2023-05-28T09:37:59;23.20;92.30
5344;DHT22;2694;48.954;8.928;2023-05-28T09:40:27;23.40;91.60
5344;DHT22;2694;48.954;8.928;2023-05-28T09:42:54;23.40;92.20
5344;DHT22;2694;48.954;8.928;2023-05-28T09:45:26;23.80;92.10
5344;DHT22;2694;48.954;8.928;2023-05-28T09:47:53;24.20;90.70
5344;DHT22;2694;48.954;8.928;2023-05-28T09:50:20;24.20;91.50
5344;DHT22;2694;48.954;8.928;2023-05-28T09:52:47;24.10;90.00
5344;DHT22;2694;48.954;8.928;2023-05-28T09:55:16;24.00;90.10
5344;DHT22;2694;48.954;8.928;2023-05-28T09:57:55;23.60;89.20
5344;DHT22;2694;48.954;8.928;2023-05-28T10:00:32;23.40;88.70
5344;DHT22;2694;48.954;8.928;2023-05-28T10:03:10;23.40;89.30
5344;DHT22;2694;48.954;8.928;2023-05-28T10:05:42;23.40;90.10
5344;DHT22;2694;48.954;8.928;2023-05-28T10:08:13;23.50;89.20
5344;DHT22;2694;48.954;8.928;2023-05-28T10:10:41;23.60;87.10
5344;DHT22;2694;48.954;8.928;2023-05-28T10:13:08;23.60;88.60
5344;DHT22;2694;48.954;8.928;2023-05-28T10:15:39;23.80;88.30
5344;DHT22;2694;48.954;8.928;2023-05-28T10:18:07;23.80;88.40
5344;DHT22;2694;48.954;8.928;2023-05-28T10:20:34;23.80;86.40
5344;DHT22;2694;48.954;8.928;2023-05-28T10:23:01;23.80;80.00
5344;DHT22;2694;48.954;8.928;2023-05-28T10:25:29;23.60;82.80
5344;DHT22;2694;48.954;8.928;2023-05-28T10:27:59;23.90;87.10
5344;DHT22;2694;48.954;8.928;2023-05-28T10:30:32;24.20;82.80
5344;DHT22;2694;48.954;8.928;2023-05-28T10:33:03;24.40;81.70
5344;DHT22;2694;48.954;8.928;2023-05-28T10:35:32;24.40;83.10
5344;DHT22;2694;48.954;8.928;2023-05-28T10:38:03;24.40;82.60
5344;DHT22;2694;48.954;8.928;2023-05-28T10:40:32;24.60;82.40
5344;DHT22;2694;48.954;8.928;2023-05-28T10:43:00;24.30;81.40
5344;DHT22;2694;48.954;8.928;2023-05-28T10:45:37;23.70;80.40
5344;DHT22;2694;48.954;8.928;2023-05-28T10:48:06;23.70;85.10
5344;DHT22;2694;48.954;8.928;2023-05-28T10:50:57;24.00;84.70
5344;DHT22;2694;48.954;8.928;2023-05-28T10:53:25;24.50;83.60
5344;DHT22;2694;48.954;8.928;2023-05-28T10:55:53;24.60;80.10
5344;DHT22;2694;48.954;8.928;2023-05-28T10:58:25;24.10;80.50
5344;DHT22;2694;48.954;8.928;2023-05-28T11:00:52;23.80;81.90
5344;DHT22;2694;48.954;8.928;2023-05-28T11:03:42;23.80;82.10
5344;DHT22;2694;48.954;8.928;2023-05-28T11:06:10;23.70;83.10
5344;DHT22;2694;48.954;8.928;2023-05-28T11:08:41;23.80;86.50
5344;DHT22;2694;48.954;8.928;2023-05-28T11:11:10;24.00;83.70
5344;DHT22;2694;48.954;8.928;2023-05-28T11:13:39;24.00;84.20
5344;DHT22;2694;48.954;8.928;2023-05-28T11:16:09;23.80;85.00
5344;DHT22;2694;48.954;8.928;2023-05-28T11:18:36;23.80;86.40
5344;DHT22;2694;48.954;8.928;2023-05-28T11:21:07;24.10;85.00
5344;DHT22;2694;48.954;8.928;2023-05-28T11:23:35;24.20;83.60
5344;DHT22;2694;48.954;8.928;2023-05-28T11:26:03;23.90;82.50
5344;DHT22;2694;48.954;8.928;2023-05-28T11:28:30;23.90;83.30
5344;DHT22;2694;48.954;8.928;2023-05-28T11:30:58;24.00;85.70
5344;DHT22;2694;48.954;8.928;2023-05-28T11:33:28;24.20;84.70
5344;DHT22;2694;48.954;8.928;2023-05-28T11:35:59;24.40;84.40
5344;DHT22;2694;48.954;8.928;2023-05-28T11:38:28;24.40;84.50
5344;DHT22;2694;48.954;8.928;2023-05-28T11:40:58;24.40;84.10
5344;DHT22;2694;48.954;8.928;2023-05-28T11:43:26;24.40;83.90
5344;DHT22;2694;48.954;8.928;2023-05-28T11:45:56;24.40;83.90
5344;DHT22;2694;48.954;8.928;2023-05-28T11:48:24;24.50;83.50
5344;DHT22;2694;48.954;8.928;2023-05-28T11:50:56;24.40;82.00
5344;DHT22;2694;48.954;8.928;2023-05-28T11:53:23;24.20;82.00
5344;DHT22;2694;48.954;8.928;2023-05-28T11:55:52;24.20;80.00
5344;DHT22;2694;48.954;8.928;2023-05-28T11:58:28;24.00;79.30
5344;DHT22;2694;48.954;8.928;2023-05-28T12:00:56;24.00;79.70
5344;DHT22;2694;48.954;8.928;2023-05-28T12:03:25;23.80;80.00
5344;DHT22;2694;48.954;8.928;2023-05-28T12:05:52;23.90;80.30
5344;DHT22;2694;48.954;8.928;2023-05-28T12:08:19;24.00;80.90
5344;DHT22;2694;48.954;8.928;2023-05-28T12:10:46;24.10;80.00
5344;DHT22;2694;48.954;8.928;2023-05-28T12:13:14;24.20;80.00
5344;DHT22;2694;48.954;8.928;2023-05-28T12:15:41;24.40;80.10
5344;DHT22;2694;48.954;8.928;2023-05-28T12:18:09;24.50;81.20
5344;DHT22;2694;48.954;8.928;2023-05-28T12:20:38;24.70;79.70
5344;DHT22;2694;48.954;8.928;2023-05-28T12:23:08;25.10;81.30
5344;DHT22;2694;48.954;8.928;2023-05-28T12:25:44;25.20;78.10
5344;DHT22;2694;48.954;8.928;2023-05-28T12:28:14;24.80;78.00
5344;DHT22;2694;48.954;8.928;2023-05-28T12:30:43;24.60;80.40
5344;DHT22;2694;48.954;8.928;2023-05-28T12:33:11;24.70;79.90
5344;DHT22;2694;48.954;8.928;2023-05-28T12:35:38;24.90;80.70
5344;DHT22;2694;48.954;8.928;2023-05-28T12:38:05;25.10;80.90
5344;DHT22;2694;48.954;8.928;2023-05-28T12:40:32;25.30;76.30
5344;DHT22;2694;48.954;8.928;2023-05-28T12:42:59;25.10;78.00
5344;DHT22;2694;48.954;8.928;2023-05-28T12:45:28;25.00;78.70
5344;DHT22;2694;48.954;8.928;2023-05-28T12:47:56;24.80;75.00
5344;DHT22;2694;48.954;8.928;2023-05-28T12:50:24;24.70;74.40
5344;DHT22;2694;48.954;8.928;2023-05-28T12:52:51;24.60;74.60
5344;DHT22;2694;48.954;8.928;2023-05-28T12:55:19;24.70;75.40
5344;DHT22;2694;48.954;8.928;2023-05-28T12:57:46;24.80;74.80
5344;DHT22;2694;48.954;8.928;2023-05-28T13:00:14;24.90;75.00
5344;DHT22;2694;48.954;8.928;2023-05-28T13:02:42;25.00;73.40
5344;DHT22;2694;48.954;8.928;2023-05-28T13:05:12;24.90;72.90
5344;DHT22;2694;48.954;8.928;2023-05-28T13:07:39;24.80;72.80
5344;DHT22;2694;48.954;8.928;2023-05-28T13:10:07;24.90;71.70
5344;DHT22;2694;48.954;8.928;2023-05-28T13:12:35;24.80;73.10
5344;DHT22;2694;48.954;8.928;2023-05-28T13:15:04;25.00;73.30
5344;DHT22;2694;48.954;8.928;2023-05-28T13:17:31;25.10;72.40
5344;DHT22;2694;48.954;8.928;2023-05-28T13:19:59;25.00;72.00
5344;DHT22;2694;48.954;8.928;2023-05-28T13:22:26;25.00;72.30
5344;DHT22;2694;48.954;8.928;2023-05-28T13:24:53;25.10;73.40
5344;DHT22;2694;48.954;8.928;2023-05-28T13:27:20;25.20;72.30
5344;DHT22;2694;48.954;8.928;2023-05-28T13:29:47;25.20;73.30
5344;DHT22;2694;48.954;8.928;2023-05-28T13:32:14;25.20;71.20
5344;DHT22;2694;48.954;8.928;2023-05-28T13:34:41;25.20;72.40
5344;DHT22;2694;48.954;8.928;2023-05-28T13:37:09;25.10;73.10
5344;DHT22;2694;48.954;8.928;2023-05-28T13:39:36;25.30;73.40
5344;DHT22;2694;48.954;8.928;2023-05-28T13:42:03;25.30;71.80
5344;DHT22;2694;48.954;8.928;2023-05-28T13:44:32;25.20;71.70
5344;DHT22;2694;48.954;8.928;2023-05-28T13:46:59;25.10;71.60
5344;DHT22;2694;48.954;8.928;2023-05-28T13:49:26;25.00;71.90
5344;DHT22;2694;48.954;8.928;2023-05-28T13:51:53;25.10;72.30
5344;DHT22;2694;48.954;8.928;2023-05-28T13:54:21;25.20;72.10
5344;DHT22;2694;48.954;8.928;2023-05-28T13:56:48;25.20;72.20
5344;DHT22;2694;48.954;8.928;2023-05-28T13:59:15;25.10;71.20
5344;DHT22;2694;48.954;8.928;2023-05-28T14:01:42;25.10;72.10
5344;DHT22;2694;48.954;8.928;2023-05-28T14:04:09;25.10;71.40
5344;DHT22;2694;48.954;8.928;2023-05-28T14:06:36;25.00;70.70
5344;DHT22;2694;48.954;8.928;2023-05-28T14:09:03;25.00;72.60
5344;DHT22;2694;48.954;8.928;2023-05-28T14:11:32;24.90;71.20
5344;DHT22;2694;48.954;8.928;2023-05-28T14:14:00;25.00;69.50
5344;DHT22;2694;48.954;8.928;2023-05-28T14:16:27;25.00;69.40
5344;DHT22;2694;48.954;8.928;2023-05-28T14:18:53;25.00;68.90
5344;DHT22;2694;48.954;8.928;2023-05-28T14:21:20;25.10;70.10
5344;DHT22;2694;48.954;8.928;2023-05-28T14:23:47;25.20;69.80
5344;DHT22;2694;48.954;8.928;2023-05-28T14:26:14;25.20;68.50
5344;DHT22;2694;48.954;8.928;2023-05-28T14:28:42;25.20;67.20
5344;DHT22;2694;48.954;8.928;2023-05-28T14:31:09;25.10;66.50
5344;DHT22;2694;48.954;8.928;2023-05-28T14:33:36;25.00;66.50
5344;DHT22;2694;48.954;8.928;2023-05-28T14:36:03;25.00;64.70
5344;DHT22;2694;48.954;8.928;2023-05-28T14:38:31;25.10;64.90
5344;DHT22;2694;48.954;8.928;2023-05-28T14:40:58;25.00;64.90
5344;DHT22;2694;48.954;8.928;2023-05-28T14:43:24;25.00;65.10
5344;DHT22;2694;48.954;8.928;2023-05-28T14:45:53;25.10;66.40
5344;DHT22;2694;48.954;8.928;2023-05-28T14:48:20;25.10;66.90
5344;DHT22;2694;48.954;8.928;2023-05-28T14:50:46;25.10;68.30
5344;DHT22;2694;48.954;8.928;2023-05-28T14:53:13;25.10;71.00
5344;DHT22;2694;48.954;8.928;2023-05-28T14:55:40;25.00;69.70
5344;DHT22;2694;48.954;8.928;2023-05-28T14:58:07;25.00;70.20
5344;DHT22;2694;48.954;8.928;2023-05-28T15:00:40;25.00;69.30
5344;DHT22;2694;48.954;8.928;2023-05-28T15:03:09;25.10;63.80
5344;DHT22;2694;48.954;8.928;2023-05-28T15:05:36;25.10;61.00
5344;DHT22;2694;48.954;8.928;2023-05-28T15:08:05;25.10;62.00
5344;DHT22;2694;48.954;8.928;2023-05-28T15:10:31;25.00;66.10
5344;DHT22;2694;48.954;8.928;2023-05-28T15:12:58;25.10;64.40
5344;DHT22;2694;48.954;8.928;2023-05-28T15:15:25;25.20;62.60
5344;DHT22;2694;48.954;8.928;2023-05-28T15:17:52;25.10;63.40
5344;DHT22;2694;48.954;8.928;2023-05-28T15:20:21;25.20;63.30
5344;DHT22;2694;48.954;8.928;2023-05-28T15:22:48;25.20;65.10
5344;DHT22;2694;48.954;8.928;2023-05-28T15:25:15;25.10;63.40
5344;DHT22;2694;48.954;8.928;2023-05-28T15:27:46;25.10;64.40
5344;DHT22;2694;48.954;8.928;2023-05-28T15:30:14;25.10;63.50
5344;DHT22;2694;48.954;8.928;2023-05-28T15:32:41;25.20;65.20
5344;DHT22;2694;48.954;8.928;2023-05-28T15:35:09;25.20;65.20
5344;DHT22;2694;48.954;8.928;2023-05-28T15:37:38;25.20;67.60
5344;DHT22;2694;48.954;8.928;2023-05-28T15:40:06;25.20;68.00
5344;DHT22;2694;48.954;8.928;2023-05-28T15:42:34;25.20;68.00
5344;DHT22;2694;48.954;8.928;2023-05-28T15:45:01;25.20;68.00
5344;DHT22;2694;48.954;8.928;2023-05-28T15:47:29;25.00;69.60
5344;DHT22;2694;48.954;8.928;2023-05-28T15:49:55;24.90;69.60
5344;DHT22;2694;48.954;8.928;2023-05-28T15:52:22;24.90;69.50
5344;DHT22;2694;48.954;8.928;2023-05-28T15:54:51;24.90;69.00
5344;DHT22;2694;48.954;8.928;2023-05-28T15:57:19;24.80;69.50
5344;DHT22;2694;48.954;8.928;2023-05-28T15:59:46;24.80;70.40
5344;DHT22;2694;48.954;8.928;2023-05-28T16:02:15;24.80;71.80
5344;DHT22;2694;48.954;8.928;2023-05-28T16:04:44;24.80;71.10
5344;DHT22;2694;48.954;8.928;2023-05-28T16:07:12;24.90;70.90
5344;DHT22;2694;48.954;8.928;2023-05-28T16:09:39;24.90;68.20